Klihyam — WDB7218 — position and weather

sailwx.info

Track history (hours):
 
Tides and Currents Weather Stations Pressure Air Temp Water Temp Dewpoint Dewpoint Depression Visibility Wind Speed Wind Dir Waves Ship Positions

Klihyam

Owner: Sause Bros. Inc, COOS BAY, OR. More information available from US FCC via Universal Licensing System and Coast Guard Vessel Documentation Center.

Last reported at 2018-Apr-22 06:29 UTC. Time now 2018-Apr-22 06:50 UTC.
Position N 37°46' W 122°23'.

Length 35 m; draft 5.3 m.

Type: Towing. MMSI: 366938510.

Date/timePositionNaut miles runAvg speedWind from/ knotsBaromVisibWave heightAir tempDewpointWater temp
2018-Apr-22 06:29N 37°46' W 122°23'0 0.0
2018-Apr-22 05:59N 37°46' W 122°23'0 0.0
2018-Apr-22 05:29N 37°46' W 122°23'0 0.0
2018-Apr-22 04:59N 37°46' W 122°23'0 0.0
2018-Apr-22 04:29N 37°46' W 122°23'0 0.0
2018-Apr-22 03:59N 37°46' W 122°23'0 0.0
2018-Apr-22 03:29N 37°46' W 122°23'0 0.0
2018-Apr-22 02:59N 37°46' W 122°23'0 0.0
2018-Apr-22 02:29N 37°46' W 122°23'0 0.0
2018-Apr-22 01:59N 37°46' W 122°23'0 0.0
2018-Apr-22 01:26N 37°46' W 122°23'0 0.0
2018-Apr-22 00:59N 37°46' W 122°23'0 0.0
2018-Apr-22 00:29N 37°46' W 122°23'0 0.0
2018-Apr-21 23:59N 37°46' W 122°23'0 0.0
2018-Apr-21 23:29N 37°46' W 122°23'0 0.0
2018-Apr-21 22:59N 37°46' W 122°23'0 0.0
2018-Apr-21 22:29N 37°46' W 122°23'0 0.0
2018-Apr-21 21:59N 37°46' W 122°23'0 0.0
2018-Apr-21 21:26N 37°46' W 122°23'0 0.0
2018-Apr-21 20:56N 37°46' W 122°23'0 0.0
2018-Apr-21 20:29N 37°46' W 122°23'0 0.0
2018-Apr-21 19:59N 37°46' W 122°23'0 0.0
2018-Apr-21 19:29N 37°46' W 122°23'0 0.0
2018-Apr-21 18:59N 37°46' W 122°23'0 0.0
2018-Apr-21 18:29N 37°46' W 122°23'0 0.0
2018-Apr-21 17:56N 37°46' W 122°23'0 0.0
2018-Apr-21 17:29N 37°46' W 122°23'0 0.1
2018-Apr-21 17:00N 37°46' W 122°23'0 0.0
2018-Apr-21 16:30N 37°46' W 122°23'1 1.9
2018-Apr-21 16:00N 37°47' W 122°23'4 8.7
2018-Apr-21 15:30N 37°52' W 122°25'612.8
2018-Apr-21 15:00N 37°58' W 122°26'611.6
2018-Apr-21 14:30N 38°02' W 122°21'510.8
2018-Apr-21 14:00N 38°04' W 122°15'5 9.6
2018-Apr-21 13:30N 38°02' W 122°09'2 4.1
2018-Apr-21 12:56N 38°03' W 122°06'0 0.0
2018-Apr-21 12:20N 38°03' W 122°06'0 0.0
2018-Apr-21 11:56N 38°03' W 122°06'0 0.0
2018-Apr-21 10:38N 38°03' W 122°06'0 0.0
2018-Apr-21 10:26N 38°03' W 122°06'0 0.0
2018-Apr-21 09:56N 38°03' W 122°06'0 0.0
2018-Apr-21 08:14N 38°03' W 122°06'0 0.0
2018-Apr-21 07:56N 38°03' W 122°06'0 0.0
2018-Apr-21 05:50N 38°03' W 122°06'0 0.0
2018-Apr-21 05:26N 38°03' W 122°06'0 0.0
2018-Apr-21 04:56N 38°03' W 122°06'0 0.0
2018-Apr-21 04:20N 38°03' W 122°06'0 0.0
2018-Apr-21 03:50N 38°03' W 122°06'0 0.0
2018-Apr-21 03:20N 38°03' W 122°06'0 0.0
2018-Apr-21 02:56N 38°03' W 122°06'0 0.0
2018-Apr-21 02:26N 38°03' W 122°06'0 0.0
2018-Apr-21 01:56N 38°03' W 122°06'0 0.0
2018-Apr-21 01:20N 38°03' W 122°06'0 0.0
2018-Apr-21 00:56N 38°03' W 122°06'0 0.0
2018-Apr-20 20:44N 38°03' W 122°06'0 0.0
2018-Apr-20 20:26N 38°03' W 122°06'0 0.0
2018-Apr-20 19:56N 38°03' W 122°06'0 0.0
2018-Apr-20 18:20N 38°03' W 122°06'0 0.0
2018-Apr-20 17:50N 38°03' W 122°06'0 0.2
2018-Apr-20 17:30N 38°03' W 122°06'3 2.2
2018-Apr-20 15:56N 38°03' W 122°10'3 6.0
2018-Apr-20 15:29N 38°04' W 122°14'3 6.1
2018-Apr-20 15:00N 38°03' W 122°17'4 7.5
2018-Apr-20 14:30N 38°02' W 122°22'4 7.7
2018-Apr-20 14:00N 37°59' W 122°25'3 6.9
2018-Apr-20 13:30N 37°56' W 122°26'1 1.6
2018-Apr-20 13:00N 37°55' W 122°25'0 0.4
2018-Apr-20 12:29N 37°55' W 122°25'0 0.0
2018-Apr-20 11:56N 37°55' W 122°25'0 0.0
2018-Apr-20 11:29N 37°55' W 122°25'0 0.0
2018-Apr-20 10:59N 37°55' W 122°25'0 0.0
2018-Apr-20 10:29N 37°55' W 122°25'0 0.0
2018-Apr-20 09:59N 37°55' W 122°25'0 0.0
2018-Apr-20 09:29N 37°55' W 122°25'0 0.0
2018-Apr-20 08:59N 37°55' W 122°25'0 0.0
2018-Apr-20 08:29N 37°55' W 122°25'0 0.0
2018-Apr-20 07:56N 37°55' W 122°25'0 0.0
2018-Apr-20 07:29N 37°55' W 122°25'0 0.0
2018-Apr-20 06:59N 37°55' W 122°25'0 0.0
2018-Apr-20 06:29N 37°55' W 122°25'0 0.0
2018-Apr-20 05:59N 37°55' W 122°25'0 0.0
2018-Apr-20 05:29N 37°55' W 122°25'0 0.0
2018-Apr-20 04:59N 37°55' W 122°25'0 0.0
2018-Apr-20 04:29N 37°55' W 122°25'0 0.0
2018-Apr-20 03:59N 37°55' W 122°25'0 0.0
2018-Apr-20 03:29N 37°55' W 122°25'0 0.0
2018-Apr-20 02:59N 37°55' W 122°25'0 0.0
2018-Apr-20 02:26N 37°55' W 122°25'0 0.0
2018-Apr-20 01:56N 37°55' W 122°25'0 0.0
2018-Apr-20 01:29N 37°55' W 122°25'0 0.0
2018-Apr-20 00:59N 37°55' W 122°25'0 0.0
2018-Apr-20 00:29N 37°55' W 122°25'0 0.0
2018-Apr-19 23:59N 37°55' W 122°25'0 0.0
2018-Apr-19 23:29N 37°55' W 122°25'0 0.0
2018-Apr-19 23:00N 37°55' W 122°25'0 0.6
2018-Apr-19 22:30N 37°55' W 122°25'2 3.8
2018-Apr-19 22:01N 37°54' W 122°26'4 7.3
2018-Apr-19 21:30N 37°50' W 122°24'4 8.1
2018-Apr-19 21:01N 37°46' W 122°23'0 0.7
2018-Apr-19 20:30N 37°46' W 122°23'0 0.0
2018-Apr-19 20:00N 37°46' W 122°23'0 0.1
2018-Apr-19 19:30N 37°46' W 122°23'0 0.0
2018-Apr-19 19:00N 37°46' W 122°23'0 0.0
2018-Apr-19 18:30N 37°46' W 122°23'0 0.0
2018-Apr-19 18:00N 37°46' W 122°23'0 0.0
2018-Apr-19 17:27N 37°46' W 122°23'0 0.0
2018-Apr-19 17:00N 37°46' W 122°23'3 5.5
2018-Apr-19 16:30N 37°49' W 122°24'510.5
2018-Apr-19 16:00N 37°54' W 122°26'0 0.1
2018-Apr-19 15:30N 37°54' W 122°26'4 8.7
2018-Apr-19 15:00N 37°50' W 122°24'4 6.6
2018-Apr-19 14:28N 37°46' W 122°23'0 0.0
2018-Apr-19 13:58N 37°46' W 122°23'0 0.0
2018-Apr-19 13:28N 37°46' W 122°23'0 0.0
2018-Apr-19 12:58N 37°46' W 122°23'0 0.0
2018-Apr-19 12:28N 37°46' W 122°23'0 0.0
2018-Apr-19 11:58N 37°46' W 122°23'0 0.0
2018-Apr-19 11:28N 37°46' W 122°23'0 0.0
2018-Apr-19 10:58N 37°46' W 122°23'0 0.0
2018-Apr-19 10:28N 37°46' W 122°23'0 0.0
2018-Apr-19 09:58N 37°46' W 122°23'0 0.0
2018-Apr-19 09:28N 37°46' W 122°23'0 0.0
2018-Apr-19 08:58N 37°46' W 122°23'0 0.0
2018-Apr-19 08:28N 37°46' W 122°23'0 0.0
2018-Apr-19 07:58N 37°46' W 122°23'0 0.0
2018-Apr-19 07:28N 37°46' W 122°23'0 0.0
2018-Apr-19 06:58N 37°46' W 122°23'0 0.0
2018-Apr-19 06:28N 37°46' W 122°23'0 0.0
2018-Apr-19 05:58N 37°46' W 122°23'0 0.0
2018-Apr-19 05:28N 37°46' W 122°23'0 0.0
2018-Apr-19 04:58N 37°46' W 122°23'0 0.0
2018-Apr-19 04:28N 37°46' W 122°23'0 0.1
2018-Apr-19 04:00N 37°46' W 122°23'0 0.6
2018-Apr-19 03:30N 37°47' W 122°23'3 5.9
2018-Apr-19 03:01N 37°49' W 122°25'4 8.3
2018-Apr-19 02:30N 37°48' W 122°30'4 7.8
2018-Apr-19 02:00N 37°47' W 122°35'5 9.4
2018-Apr-19 01:31N 37°46' W 122°40'510.7
2018-Apr-19 01:00N 37°47' W 122°47'5 9.1
2018-Apr-19 00:30N 37°49' W 122°53'510.1
2018-Apr-19 00:01N 37°51' W 122°58'510.4
2018-Apr-18 23:30N 37°54' W 123°04'510.6
2018-Apr-18 23:00N 37°57' W 123°10'510.8
2018-Apr-18 22:30N 38°01' W 123°14'511.0
2018-Apr-18 22:01N 38°05' W 123°19'510.9
2018-Apr-18 21:31N 38°09' W 123°23'510.8
2018-Apr-18 21:01N 38°14' W 123°27'5 9.9
2018-Apr-18 20:30N 38°18' W 123°30'5 9.5
2018-Apr-18 20:00N 38°22' W 123°33'5 9.7
2018-Apr-18 19:30N 38°26' W 123°36'5 9.9
2018-Apr-18 19:00N 38°31' W 123°39'510.0
2018-Apr-18 18:28N 38°35' W 123°43'4 9.7
2018-Apr-18 18:00N 38°39' W 123°46'  
2018-Apr-15 14:39N 38°35' W 123°45'1 7.2
2018-Apr-15 14:30N 38°35' W 123°44'4 7.2
2018-Apr-15 14:00N 38°32' W 123°41'4 7.9
2018-Apr-15 13:30N 38°28' W 123°38'4 7.8
2018-Apr-15 13:00N 38°25' W 123°35'4 7.6
2018-Apr-15 12:30N 38°22' W 123°32'4 7.4
2018-Apr-15 12:00N 38°19' W 123°30'4 7.5
2018-Apr-15 11:31N 38°16' W 123°27'4 7.3
2018-Apr-15 11:00N 38°13' W 123°24'4 7.3
2018-Apr-15 10:30N 38°10' W 123°21'4 7.1
2018-Apr-15 10:00N 38°08' W 123°18'4 7.2
2018-Apr-15 09:30N 38°05' W 123°15'3 7.0
2018-Apr-15 09:01N 38°02' W 123°13'4 7.1
2018-Apr-15 08:30N 37°59' W 123°10'4 7.0
2018-Apr-15 08:00N 37°57' W 123°06'4 7.2
2018-Apr-15 07:30N 37°56' W 123°02'4 7.0
2018-Apr-15 07:00N 37°54' W 122°58'4 7.4
2018-Apr-15 06:30N 37°52' W 122°54'4 7.6
2018-Apr-15 06:00N 37°50' W 122°50'4 7.5
2018-Apr-15 05:30N 37°49' W 122°45'3 6.3
2018-Apr-15 05:01N 37°47' W 122°42'3 6.3
2018-Apr-15 04:30N 37°46' W 122°38'3 6.6
2018-Apr-15 04:00N 37°47' W 122°34'4 7.0
2018-Apr-15 03:30N 37°49' W 122°30'4 7.8
2018-Apr-15 03:00N 37°50' W 122°26'4 7.8
2018-Apr-15 02:30N 37°54' W 122°26'2 3.2
2018-Apr-15 02:00N 37°55' W 122°25'0 0.0
2018-Apr-15 01:30N 37°55' W 122°25'0 0.5
2018-Apr-15 00:59N 37°55' W 122°25'0 0.0
2018-Apr-15 00:29N 37°55' W 122°25'0 0.0
2018-Apr-14 23:56N 37°55' W 122°25'0 0.0
2018-Apr-14 23:29N 37°55' W 122°25'0 0.0
2018-Apr-14 22:59N 37°55' W 122°25'0 0.0
2018-Apr-14 22:29N 37°55' W 122°25'0 0.0
2018-Apr-14 21:59N 37°55' W 122°25'0 0.0
2018-Apr-14 21:29N 37°55' W 122°25'0 0.0
2018-Apr-14 20:59N 37°55' W 122°25'0 0.0
2018-Apr-14 20:26N 37°55' W 122°25'0 0.0
2018-Apr-14 19:59N 37°55' W 122°25'0 0.0
2018-Apr-14 19:29N 37°55' W 122°25'0 0.0
2018-Apr-14 18:59N 37°55' W 122°25'0 0.0
2018-Apr-14 18:29N 37°55' W 122°25'0 0.0
2018-Apr-14 17:59N 37°55' W 122°25'0 0.0
2018-Apr-14 17:29N 37°55' W 122°25'0 0.0
2018-Apr-14 16:59N 37°55' W 122°25'0 0.0
2018-Apr-14 16:26N 37°55' W 122°25'0 0.0
2018-Apr-14 15:59N 37°55' W 122°25'0 0.0
2018-Apr-14 15:29N 37°55' W 122°25'0 0.0
2018-Apr-14 14:59N 37°55' W 122°25'0 0.0
2018-Apr-14 14:29N 37°55' W 122°25'0 0.0
2018-Apr-14 13:56N 37°55' W 122°25'0 0.0
2018-Apr-14 13:29N 37°55' W 122°25'0 0.0
2018-Apr-14 12:59N 37°55' W 122°25'0 0.0
2018-Apr-14 12:29N 37°55' W 122°25'0 0.0
2018-Apr-14 11:59N 37°55' W 122°25'0 0.0
2018-Apr-14 11:26N 37°55' W 122°25'0 0.0
2018-Apr-14 10:59N 37°55' W 122°25'0 0.0
2018-Apr-14 10:29N 37°55' W 122°25'0 0.0
2018-Apr-14 09:59N 37°55' W 122°25'0 0.0
2018-Apr-14 09:26N 37°55' W 122°25'0 0.0
2018-Apr-14 08:59N 37°55' W 122°25'0 0.0
2018-Apr-14 08:29N 37°55' W 122°25'0 0.0
2018-Apr-14 07:59N 37°55' W 122°25'0 0.0
2018-Apr-14 07:29N 37°55' W 122°25'0 0.0
2018-Apr-14 06:59N 37°55' W 122°25'0 0.0
2018-Apr-14 06:29N 37°55' W 122°25'0 0.0
2018-Apr-14 05:56N 37°55' W 122°25'0 0.0
2018-Apr-14 05:29N 37°55' W 122°25'0 0.0
2018-Apr-14 04:56N 37°55' W 122°25'0 0.0
2018-Apr-14 04:29N 37°55' W 122°25'0 0.0
2018-Apr-14 03:59N 37°55' W 122°25'0 0.0
2018-Apr-14 03:29N 37°55' W 122°25'0 0.0
2018-Apr-14 02:59N 37°55' W 122°25'0 0.0
2018-Apr-14 02:30N 37°55' W 122°25'0 0.5
2018-Apr-14 02:00N 37°55' W 122°25'1 3.0
2018-Apr-14 01:30N 37°54' W 122°24'1 2.7
2018-Apr-14 00:58N 37°55' W 122°22'0 0.0
2018-Apr-14 00:28N 37°55' W 122°22'0 0.0
2018-Apr-13 23:58N 37°55' W 122°22'0 0.0
2018-Apr-13 23:28N 37°55' W 122°22'0 0.0
2018-Apr-13 22:58N 37°55' W 122°22'0 0.0
2018-Apr-13 22:31N 37°55' W 122°22'0 0.0
2018-Apr-13 21:58N 37°55' W 122°22'0 0.0
2018-Apr-13 21:28N 37°55' W 122°22'0 0.0
2018-Apr-13 20:58N 37°55' W 122°22'0 0.0
2018-Apr-13 20:28N 37°55' W 122°22'0 0.0
2018-Apr-13 19:58N 37°55' W 122°22'0 0.0
2018-Apr-13 19:28N 37°55' W 122°22'0 0.0
2018-Apr-13 18:58N 37°55' W 122°22'0 0.0
2018-Apr-13 18:28N 37°55' W 122°22'0 0.0
2018-Apr-13 17:58N 37°55' W 122°22'0 0.0
2018-Apr-13 17:25N 37°55' W 122°22'0 0.0
2018-Apr-13 16:57N 37°55' W 122°22'0 0.0
2018-Apr-13 16:30N 37°55' W 122°22'0 0.0
2018-Apr-13 15:58N 37°55' W 122°22'0 0.0
2018-Apr-13 15:30N 37°55' W 122°22'0 0.0
2018-Apr-13 14:57N 37°55' W 122°22'0 0.0
2018-Apr-13 14:27N 37°55' W 122°22'0 0.0
2018-Apr-13 13:58N 37°55' W 122°22'0 0.0
2018-Apr-13 13:31N 37°55' W 122°22'0 0.0
2018-Apr-13 12:48N 37°55' W 122°22'0 0.0
2018-Apr-13 12:31N 37°55' W 122°22'0 0.0
2018-Apr-13 11:48N 37°55' W 122°22'0 0.0
2018-Apr-13 11:28N 37°55' W 122°22'0 0.0
2018-Apr-13 10:25N 37°55' W 122°22'0 0.0
2018-Apr-13 09:55N 37°55' W 122°22'0 0.0
2018-Apr-13 09:25N 37°55' W 122°22'0 0.0
2018-Apr-13 08:49N 37°55' W 122°22'0 0.0
2018-Apr-13 08:24N 37°55' W 122°22'0 0.0
2018-Apr-13 07:54N 37°55' W 122°22'0 0.0
2018-Apr-13 07:00N 37°55' W 122°22'0 0.0
2018-Apr-13 06:30N 37°55' W 122°22'0 0.0
2018-Apr-13 05:58N 37°55' W 122°22'0 0.0
2018-Apr-13 04:42N 37°55' W 122°22'0 0.0
2018-Apr-13 04:25N 37°55' W 122°22'0 0.0
2018-Apr-13 03:57N 37°55' W 122°22'0 0.0
2018-Apr-13 03:21N 37°55' W 122°22'0 0.0
2018-Apr-13 03:00N 37°55' W 122°22'0 0.0
2018-Apr-13 02:30N 37°55' W 122°22'0 0.0
2018-Apr-13 02:00N 37°55' W 122°22'0 0.0
2018-Apr-13 01:30N 37°55' W 122°22'0 0.0
2018-Apr-13 00:52N 37°55' W 122°22'0 0.0
2018-Apr-13 00:27N 37°55' W 122°22'0 0.0
2018-Apr-12 23:58N 37°55' W 122°22'0 0.0
2018-Apr-12 23:31N 37°55' W 122°22'0 0.0
2018-Apr-12 23:01N 37°55' W 122°22'0 0.0
2018-Apr-12 22:30N 37°55' W 122°22'0 0.0
2018-Apr-12 22:00N 37°55' W 122°22'0 0.0
2018-Apr-12 21:30N 37°55' W 122°22'0 0.0
2018-Apr-12 20:54N 37°55' W 122°22'0 0.0
2018-Apr-12 20:21N 37°55' W 122°22'0 0.0
2018-Apr-12 20:00N 37°55' W 122°22'0 0.0
2018-Apr-12 19:30N 37°55' W 122°22'0 0.0
2018-Apr-12 18:48N 37°55' W 122°22'0 0.0
2018-Apr-12 18:24N 37°55' W 122°22'0 0.0
2018-Apr-12 17:48N 37°55' W 122°22'0 0.0
2018-Apr-12 17:30N 37°55' W 122°22'0 0.0
2018-Apr-12 17:01N 37°55' W 122°22'0 0.0
2018-Apr-12 16:18N 37°55' W 122°22'0 0.0
2018-Apr-12 16:00N 37°55' W 122°22'0 0.0
2018-Apr-12 15:18N 37°55' W 122°22'0 0.0
2018-Apr-12 14:54N 37°55' W 122°22'0 0.0
2018-Apr-12 14:24N 37°55' W 122°22'0 0.0
2018-Apr-12 14:01N 37°55' W 122°22'0 0.0
2018-Apr-12 13:30N 37°55' W 122°22'0 0.0
2018-Apr-12 12:57N 37°55' W 122°22'0 0.0
2018-Apr-12 12:27N 37°55' W 122°22'0 0.0
2018-Apr-12 11:42N 37°55' W 122°22'0 0.0
2018-Apr-12 11:30N 37°55' W 122°22'0 0.0
2018-Apr-12 11:00N 37°55' W 122°22'0 0.0
2018-Apr-12 10:24N 37°55' W 122°22'0 0.0
2018-Apr-12 10:00N 37°55' W 122°22'0 0.0
2018-Apr-12 09:24N 37°55' W 122°22'0 0.0
2018-Apr-12 09:00N 37°55' W 122°22'0 0.0
2018-Apr-12 08:30N 37°55' W 122°22'0 0.0
2018-Apr-12 08:01N 37°55' W 122°22'0 0.0
2018-Apr-12 07:30N 37°55' W 122°22'0 0.0
2018-Apr-12 07:00N 37°55' W 122°22'0 0.0
2018-Apr-12 06:30N 37°55' W 122°22'  
Track history (hours):
 
Tides and Currents Weather Stations Pressure Air Temp Water Temp Dewpoint Dewpoint Depression Visibility Wind Speed Wind Dir Waves Ship Positions

Klihyam

Owner: Sause Bros. Inc, COOS BAY, OR. More information available from US FCC via Universal Licensing System and Coast Guard Vessel Documentation Center.

Last reported at 2018-Apr-22 06:29 UTC. Time now 2018-Apr-22 06:50 UTC.
Position N 37°46' W 122°23'.

Length 35 m; draft 5.3 m.

Type: Towing. MMSI: 366938510.

Date/timePositionNaut miles runAvg speedWind from/ knotsBaromVisibWave heightAir tempDewpointWater temp
2018-Apr-22 06:29N 37°46' W 122°23'0 0.0
2018-Apr-22 05:59N 37°46' W 122°23'0 0.0
2018-Apr-22 05:29N 37°46' W 122°23'0 0.0
2018-Apr-22 04:59N 37°46' W 122°23'0 0.0
2018-Apr-22 04:29N 37°46' W 122°23'0 0.0
2018-Apr-22 03:59N 37°46' W 122°23'0 0.0
2018-Apr-22 03:29N 37°46' W 122°23'0 0.0
2018-Apr-22 02:59N 37°46' W 122°23'0 0.0
2018-Apr-22 02:29N 37°46' W 122°23'0 0.0
2018-Apr-22 01:59N 37°46' W 122°23'0 0.0
2018-Apr-22 01:26N 37°46' W 122°23'0 0.0
2018-Apr-22 00:59N 37°46' W 122°23'0 0.0
2018-Apr-22 00:29N 37°46' W 122°23'0 0.0
2018-Apr-21 23:59N 37°46' W 122°23'0 0.0
2018-Apr-21 23:29N 37°46' W 122°23'0 0.0
2018-Apr-21 22:59N 37°46' W 122°23'0 0.0
2018-Apr-21 22:29N 37°46' W 122°23'0 0.0
2018-Apr-21 21:59N 37°46' W 122°23'0 0.0
2018-Apr-21 21:26N 37°46' W 122°23'0 0.0
2018-Apr-21 20:56N 37°46' W 122°23'0 0.0
2018-Apr-21 20:29N 37°46' W 122°23'0 0.0
2018-Apr-21 19:59N 37°46' W 122°23'0 0.0
2018-Apr-21 19:29N 37°46' W 122°23'0 0.0
2018-Apr-21 18:59N 37°46' W 122°23'0 0.0
2018-Apr-21 18:29N 37°46' W 122°23'0 0.0
2018-Apr-21 17:56N 37°46' W 122°23'0 0.0
2018-Apr-21 17:29N 37°46' W 122°23'0 0.1
2018-Apr-21 17:00N 37°46' W 122°23'0 0.0
2018-Apr-21 16:30N 37°46' W 122°23'1 1.9
2018-Apr-21 16:00N 37°47' W 122°23'4 8.7
2018-Apr-21 15:30N 37°52' W 122°25'612.8
2018-Apr-21 15:00N 37°58' W 122°26'611.6
2018-Apr-21 14:30N 38°02' W 122°21'510.8
2018-Apr-21 14:00N 38°04' W 122°15'5 9.6
2018-Apr-21 13:30N 38°02' W 122°09'2 4.1
2018-Apr-21 12:56N 38°03' W 122°06'0 0.0
2018-Apr-21 12:20N 38°03' W 122°06'0 0.0
2018-Apr-21 11:56N 38°03' W 122°06'0 0.0
2018-Apr-21 10:38N 38°03' W 122°06'0 0.0
2018-Apr-21 10:26N 38°03' W 122°06'0 0.0
2018-Apr-21 09:56N 38°03' W 122°06'0 0.0
2018-Apr-21 08:14N 38°03' W 122°06'0 0.0
2018-Apr-21 07:56N 38°03' W 122°06'0 0.0
2018-Apr-21 05:50N 38°03' W 122°06'0 0.0
2018-Apr-21 05:26N 38°03' W 122°06'0 0.0
2018-Apr-21 04:56N 38°03' W 122°06'0 0.0
2018-Apr-21 04:20N 38°03' W 122°06'0 0.0
2018-Apr-21 03:50N 38°03' W 122°06'0 0.0
2018-Apr-21 03:20N 38°03' W 122°06'0 0.0
2018-Apr-21 02:56N 38°03' W 122°06'0 0.0
2018-Apr-21 02:26N 38°03' W 122°06'0 0.0
2018-Apr-21 01:56N 38°03' W 122°06'0 0.0
2018-Apr-21 01:20N 38°03' W 122°06'0 0.0
2018-Apr-21 00:56N 38°03' W 122°06'0 0.0
2018-Apr-20 20:44N 38°03' W 122°06'0 0.0
2018-Apr-20 20:26N 38°03' W 122°06'0 0.0
2018-Apr-20 19:56N 38°03' W 122°06'0 0.0
2018-Apr-20 18:20N 38°03' W 122°06'0 0.0
2018-Apr-20 17:50N 38°03' W 122°06'0 0.2
2018-Apr-20 17:30N 38°03' W 122°06'3 2.2
2018-Apr-20 15:56N 38°03' W 122°10'3 6.0
2018-Apr-20 15:29N 38°04' W 122°14'3 6.1
2018-Apr-20 15:00N 38°03' W 122°17'4 7.5
2018-Apr-20 14:30N 38°02' W 122°22'4 7.7
2018-Apr-20 14:00N 37°59' W 122°25'3 6.9
2018-Apr-20 13:30N 37°56' W 122°26'1 1.6
2018-Apr-20 13:00N 37°55' W 122°25'0 0.4
2018-Apr-20 12:29N 37°55' W 122°25'0 0.0
2018-Apr-20 11:56N 37°55' W 122°25'0 0.0
2018-Apr-20 11:29N 37°55' W 122°25'0 0.0
2018-Apr-20 10:59N 37°55' W 122°25'0 0.0
2018-Apr-20 10:29N 37°55' W 122°25'0 0.0
2018-Apr-20 09:59N 37°55' W 122°25'0 0.0
2018-Apr-20 09:29N 37°55' W 122°25'0 0.0
2018-Apr-20 08:59N 37°55' W 122°25'0 0.0
2018-Apr-20 08:29N 37°55' W 122°25'0 0.0
2018-Apr-20 07:56N 37°55' W 122°25'0 0.0
2018-Apr-20 07:29N 37°55' W 122°25'0 0.0
2018-Apr-20 06:59N 37°55' W 122°25'0 0.0
2018-Apr-20 06:29N 37°55' W 122°25'0 0.0
2018-Apr-20 05:59N 37°55' W 122°25'0 0.0
2018-Apr-20 05:29N 37°55' W 122°25'0 0.0
2018-Apr-20 04:59N 37°55' W 122°25'0 0.0
2018-Apr-20 04:29N 37°55' W 122°25'0 0.0
2018-Apr-20 03:59N 37°55' W 122°25'0 0.0
2018-Apr-20 03:29N 37°55' W 122°25'0 0.0
2018-Apr-20 02:59N 37°55' W 122°25'0 0.0
2018-Apr-20 02:26N 37°55' W 122°25'0 0.0
2018-Apr-20 01:56N 37°55' W 122°25'0 0.0
2018-Apr-20 01:29N 37°55' W 122°25'0 0.0
2018-Apr-20 00:59N 37°55' W 122°25'0 0.0
2018-Apr-20 00:29N 37°55' W 122°25'0 0.0
2018-Apr-19 23:59N 37°55' W 122°25'0 0.0
2018-Apr-19 23:29N 37°55' W 122°25'0 0.0
2018-Apr-19 23:00N 37°55' W 122°25'0 0.6
2018-Apr-19 22:30N 37°55' W 122°25'2 3.8
2018-Apr-19 22:01N 37°54' W 122°26'4 7.3
2018-Apr-19 21:30N 37°50' W 122°24'4 8.1
2018-Apr-19 21:01N 37°46' W 122°23'0 0.7
2018-Apr-19 20:30N 37°46' W 122°23'0 0.0
2018-Apr-19 20:00N 37°46' W 122°23'0 0.1
2018-Apr-19 19:30N 37°46' W 122°23'0 0.0
2018-Apr-19 19:00N 37°46' W 122°23'0 0.0
2018-Apr-19 18:30N 37°46' W 122°23'0 0.0
2018-Apr-19 18:00N 37°46' W 122°23'0 0.0
2018-Apr-19 17:27N 37°46' W 122°23'0 0.0
2018-Apr-19 17:00N 37°46' W 122°23'3 5.5
2018-Apr-19 16:30N 37°49' W 122°24'510.5
2018-Apr-19 16:00N 37°54' W 122°26'0 0.1
2018-Apr-19 15:30N 37°54' W 122°26'4 8.7
2018-Apr-19 15:00N 37°50' W 122°24'4 6.6
2018-Apr-19 14:28N 37°46' W 122°23'0 0.0
2018-Apr-19 13:58N 37°46' W 122°23'0 0.0
2018-Apr-19 13:28N 37°46' W 122°23'0 0.0
2018-Apr-19 12:58N 37°46' W 122°23'0 0.0
2018-Apr-19 12:28N 37°46' W 122°23'0 0.0
2018-Apr-19 11:58N 37°46' W 122°23'0 0.0
2018-Apr-19 11:28N 37°46' W 122°23'0 0.0
2018-Apr-19 10:58N 37°46' W 122°23'0 0.0
2018-Apr-19 10:28N 37°46' W 122°23'0 0.0
2018-Apr-19 09:58N 37°46' W 122°23'0 0.0
2018-Apr-19 09:28N 37°46' W 122°23'0 0.0
2018-Apr-19 08:58N 37°46' W 122°23'0 0.0
2018-Apr-19 08:28N 37°46' W 122°23'0 0.0
2018-Apr-19 07:58N 37°46' W 122°23'0 0.0
2018-Apr-19 07:28N 37°46' W 122°23'0 0.0
2018-Apr-19 06:58N 37°46' W 122°23'0 0.0
2018-Apr-19 06:28N 37°46' W 122°23'0 0.0
2018-Apr-19 05:58N 37°46' W 122°23'0 0.0
2018-Apr-19 05:28N 37°46' W 122°23'0 0.0
2018-Apr-19 04:58N 37°46' W 122°23'0 0.0
2018-Apr-19 04:28N 37°46' W 122°23'0 0.1
2018-Apr-19 04:00N 37°46' W 122°23'0 0.6
2018-Apr-19 03:30N 37°47' W 122°23'3 5.9
2018-Apr-19 03:01N 37°49' W 122°25'4 8.3
2018-Apr-19 02:30N 37°48' W 122°30'4 7.8
2018-Apr-19 02:00N 37°47' W 122°35'5 9.4
2018-Apr-19 01:31N 37°46' W 122°40'510.7
2018-Apr-19 01:00N 37°47' W 122°47'5 9.1
2018-Apr-19 00:30N 37°49' W 122°53'510.1
2018-Apr-19 00:01N 37°51' W 122°58'510.4
2018-Apr-18 23:30N 37°54' W 123°04'510.6
2018-Apr-18 23:00N 37°57' W 123°10'510.8
2018-Apr-18 22:30N 38°01' W 123°14'511.0
2018-Apr-18 22:01N 38°05' W 123°19'510.9
2018-Apr-18 21:31N 38°09' W 123°23'510.8
2018-Apr-18 21:01N 38°14' W 123°27'5 9.9
2018-Apr-18 20:30N 38°18' W 123°30'5 9.5
2018-Apr-18 20:00N 38°22' W 123°33'5 9.7
2018-Apr-18 19:30N 38°26' W 123°36'5 9.9
2018-Apr-18 19:00N 38°31' W 123°39'510.0
2018-Apr-18 18:28N 38°35' W 123°43'4 9.7
2018-Apr-18 18:00N 38°39' W 123°46'  
2018-Apr-15 14:39N 38°35' W 123°45'1 7.2
2018-Apr-15 14:30N 38°35' W 123°44'4 7.2
2018-Apr-15 14:00N 38°32' W 123°41'4 7.9
2018-Apr-15 13:30N 38°28' W 123°38'4 7.8
2018-Apr-15 13:00N 38°25' W 123°35'4 7.6
2018-Apr-15 12:30N 38°22' W 123°32'4 7.4
2018-Apr-15 12:00N 38°19' W 123°30'4 7.5
2018-Apr-15 11:31N 38°16' W 123°27'4 7.3
2018-Apr-15 11:00N 38°13' W 123°24'4 7.3
2018-Apr-15 10:30N 38°10' W 123°21'4 7.1
2018-Apr-15 10:00N 38°08' W 123°18'4 7.2
2018-Apr-15 09:30N 38°05' W 123°15'3 7.0
2018-Apr-15 09:01N 38°02' W 123°13'4 7.1
2018-Apr-15 08:30N 37°59' W 123°10'4 7.0
2018-Apr-15 08:00N 37°57' W 123°06'4 7.2
2018-Apr-15 07:30N 37°56' W 123°02'4 7.0
2018-Apr-15 07:00N 37°54' W 122°58'4 7.4
2018-Apr-15 06:30N 37°52' W 122°54'4 7.6
2018-Apr-15 06:00N 37°50' W 122°50'4 7.5
2018-Apr-15 05:30N 37°49' W 122°45'3 6.3
2018-Apr-15 05:01N 37°47' W 122°42'3 6.3
2018-Apr-15 04:30N 37°46' W 122°38'3 6.6
2018-Apr-15 04:00N 37°47' W 122°34'4 7.0
2018-Apr-15 03:30N 37°49' W 122°30'4 7.8
2018-Apr-15 03:00N 37°50' W 122°26'4 7.8
2018-Apr-15 02:30N 37°54' W 122°26'2 3.2
2018-Apr-15 02:00N 37°55' W 122°25'0 0.0
2018-Apr-15 01:30N 37°55' W 122°25'0 0.5
2018-Apr-15 00:59N 37°55' W 122°25'0 0.0
2018-Apr-15 00:29N 37°55' W 122°25'0 0.0
2018-Apr-14 23:56N 37°55' W 122°25'0 0.0
2018-Apr-14 23:29N 37°55' W 122°25'0 0.0
2018-Apr-14 22:59N 37°55' W 122°25'0 0.0
2018-Apr-14 22:29N 37°55' W 122°25'0 0.0
2018-Apr-14 21:59N 37°55' W 122°25'0 0.0
2018-Apr-14 21:29N 37°55' W 122°25'0 0.0
2018-Apr-14 20:59N 37°55' W 122°25'0 0.0
2018-Apr-14 20:26N 37°55' W 122°25'0 0.0
2018-Apr-14 19:59N 37°55' W 122°25'0 0.0
2018-Apr-14 19:29N 37°55' W 122°25'0 0.0
2018-Apr-14 18:59N 37°55' W 122°25'0 0.0
2018-Apr-14 18:29N 37°55' W 122°25'0 0.0
2018-Apr-14 17:59N 37°55' W 122°25'0 0.0
2018-Apr-14 17:29N 37°55' W 122°25'0 0.0
2018-Apr-14 16:59N 37°55' W 122°25'0 0.0
2018-Apr-14 16:26N 37°55' W 122°25'0 0.0
2018-Apr-14 15:59N 37°55' W 122°25'0 0.0
2018-Apr-14 15:29N 37°55' W 122°25'0 0.0
2018-Apr-14 14:59N 37°55' W 122°25'0 0.0
2018-Apr-14 14:29N 37°55' W 122°25'0 0.0
2018-Apr-14 13:56N 37°55' W 122°25'0 0.0
2018-Apr-14 13:29N 37°55' W 122°25'0 0.0
2018-Apr-14 12:59N 37°55' W 122°25'0 0.0
2018-Apr-14 12:29N 37°55' W 122°25'0 0.0
2018-Apr-14 11:59N 37°55' W 122°25'0 0.0
2018-Apr-14 11:26N 37°55' W 122°25'0 0.0
2018-Apr-14 10:59N 37°55' W 122°25'0 0.0
2018-Apr-14 10:29N 37°55' W 122°25'0 0.0
2018-Apr-14 09:59N 37°55' W 122°25'0 0.0
2018-Apr-14 09:26N 37°55' W 122°25'0 0.0
2018-Apr-14 08:59N 37°55' W 122°25'0 0.0
2018-Apr-14 08:29N 37°55' W 122°25'0 0.0
2018-Apr-14 07:59N 37°55' W 122°25'0 0.0
2018-Apr-14 07:29N 37°55' W 122°25'0 0.0
2018-Apr-14 06:59N 37°55' W 122°25'0 0.0
2018-Apr-14 06:29N 37°55' W 122°25'0 0.0
2018-Apr-14 05:56N 37°55' W 122°25'0 0.0
2018-Apr-14 05:29N 37°55' W 122°25'0 0.0
2018-Apr-14 04:56N 37°55' W 122°25'0 0.0
2018-Apr-14 04:29N 37°55' W 122°25'0 0.0
2018-Apr-14 03:59N 37°55' W 122°25'0 0.0
2018-Apr-14 03:29N 37°55' W 122°25'0 0.0
2018-Apr-14 02:59N 37°55' W 122°25'0 0.0
2018-Apr-14 02:30N 37°55' W 122°25'0 0.5
2018-Apr-14 02:00N 37°55' W 122°25'1 3.0
2018-Apr-14 01:30N 37°54' W 122°24'1 2.7
2018-Apr-14 00:58N 37°55' W 122°22'0 0.0
2018-Apr-14 00:28N 37°55' W 122°22'0 0.0
2018-Apr-13 23:58N 37°55' W 122°22'0 0.0
2018-Apr-13 23:28N 37°55' W 122°22'0 0.0
2018-Apr-13 22:58N 37°55' W 122°22'0 0.0
2018-Apr-13 22:31N 37°55' W 122°22'0 0.0
2018-Apr-13 21:58N 37°55' W 122°22'0 0.0
2018-Apr-13 21:28N 37°55' W 122°22'0 0.0
2018-Apr-13 20:58N 37°55' W 122°22'0 0.0
2018-Apr-13 20:28N 37°55' W 122°22'0 0.0
2018-Apr-13 19:58N 37°55' W 122°22'0 0.0
2018-Apr-13 19:28N 37°55' W 122°22'0 0.0
2018-Apr-13 18:58N 37°55' W 122°22'0 0.0
2018-Apr-13 18:28N 37°55' W 122°22'0 0.0
2018-Apr-13 17:58N 37°55' W 122°22'0 0.0
2018-Apr-13 17:25N 37°55' W 122°22'0 0.0
2018-Apr-13 16:57N 37°55' W 122°22'0 0.0
2018-Apr-13 16:30N 37°55' W 122°22'0 0.0
2018-Apr-13 15:58N 37°55' W 122°22'0 0.0
2018-Apr-13 15:30N 37°55' W 122°22'0 0.0
2018-Apr-13 14:57N 37°55' W 122°22'0 0.0
2018-Apr-13 14:27N 37°55' W 122°22'0 0.0
2018-Apr-13 13:58N 37°55' W 122°22'0 0.0
2018-Apr-13 13:31N 37°55' W 122°22'0 0.0
2018-Apr-13 12:48N 37°55' W 122°22'0 0.0
2018-Apr-13 12:31N 37°55' W 122°22'0 0.0
2018-Apr-13 11:48N 37°55' W 122°22'0 0.0
2018-Apr-13 11:28N 37°55' W 122°22'0 0.0
2018-Apr-13 10:25N 37°55' W 122°22'0 0.0
2018-Apr-13 09:55N 37°55' W 122°22'0 0.0
2018-Apr-13 09:25N 37°55' W 122°22'0 0.0
2018-Apr-13 08:49N 37°55' W 122°22'0 0.0
2018-Apr-13 08:24N 37°55' W 122°22'0 0.0
2018-Apr-13 07:54N 37°55' W 122°22'0 0.0
2018-Apr-13 07:00N 37°55' W 122°22'0 0.0
2018-Apr-13 06:30N 37°55' W 122°22'0 0.0
2018-Apr-13 05:58N 37°55' W 122°22'0 0.0
2018-Apr-13 04:42N 37°55' W 122°22'0 0.0
2018-Apr-13 04:25N 37°55' W 122°22'0 0.0
2018-Apr-13 03:57N 37°55' W 122°22'0 0.0
2018-Apr-13 03:21N 37°55' W 122°22'0 0.0
2018-Apr-13 03:00N 37°55' W 122°22'0 0.0
2018-Apr-13 02:30N 37°55' W 122°22'0 0.0
2018-Apr-13 02:00N 37°55' W 122°22'0 0.0
2018-Apr-13 01:30N 37°55' W 122°22'0 0.0
2018-Apr-13 00:52N 37°55' W 122°22'0 0.0
2018-Apr-13 00:27N 37°55' W 122°22'0 0.0
2018-Apr-12 23:58N 37°55' W 122°22'0 0.0
2018-Apr-12 23:31N 37°55' W 122°22'0 0.0
2018-Apr-12 23:01N 37°55' W 122°22'0 0.0
2018-Apr-12 22:30N 37°55' W 122°22'0 0.0
2018-Apr-12 22:00N 37°55' W 122°22'0 0.0
2018-Apr-12 21:30N 37°55' W 122°22'0 0.0
2018-Apr-12 20:54N 37°55' W 122°22'0 0.0
2018-Apr-12 20:21N 37°55' W 122°22'0 0.0
2018-Apr-12 20:00N 37°55' W 122°22'0 0.0
2018-Apr-12 19:30N 37°55' W 122°22'0 0.0
2018-Apr-12 18:48N 37°55' W 122°22'0 0.0
2018-Apr-12 18:24N 37°55' W 122°22'0 0.0
2018-Apr-12 17:48N 37°55' W 122°22'0 0.0
2018-Apr-12 17:30N 37°55' W 122°22'0 0.0
2018-Apr-12 17:01N 37°55' W 122°22'0 0.0
2018-Apr-12 16:18N 37°55' W 122°22'0 0.0
2018-Apr-12 16:00N 37°55' W 122°22'0 0.0
2018-Apr-12 15:18N 37°55' W 122°22'0 0.0
2018-Apr-12 14:54N 37°55' W 122°22'0 0.0
2018-Apr-12 14:24N 37°55' W 122°22'0 0.0
2018-Apr-12 14:01N 37°55' W 122°22'0 0.0
2018-Apr-12 13:30N 37°55' W 122°22'0 0.0
2018-Apr-12 12:57N 37°55' W 122°22'0 0.0
2018-Apr-12 12:27N 37°55' W 122°22'0 0.0
2018-Apr-12 11:42N 37°55' W 122°22'0 0.0
2018-Apr-12 11:30N 37°55' W 122°22'0 0.0
2018-Apr-12 11:00N 37°55' W 122°22'0 0.0
2018-Apr-12 10:24N 37°55' W 122°22'0 0.0
2018-Apr-12 10:00N 37°55' W 122°22'0 0.0
2018-Apr-12 09:24N 37°55' W 122°22'0 0.0
2018-Apr-12 09:00N 37°55' W 122°22'0 0.0
2018-Apr-12 08:30N 37°55' W 122°22'0 0.0
2018-Apr-12 08:01N 37°55' W 122°22'0 0.0
2018-Apr-12 07:30N 37°55' W 122°22'0 0.0
2018-Apr-12 07:00N 37°55' W 122°22'0 0.0
2018-Apr-12 06:30N 37°55' W 122°22'  

Dump ship's entire track history